ENTC/TOS METAR and TAF weather

Enter ICAO airport designator
Station Type Date Time Source
ENTC METAR 2019/02/23 22:50 UTC NOAA

ENTC 232250Z 20022KT 9999 RA FEW008 OVC031 05/04 Q1008 RMK WIND 2600FT 20025KT


Station Type Date Time Source
ENTC Decoded METAR 2019/02/23 22:50 UTC NOAA

Tromso / Langnes, Norway (ENTC) 69-41N 018-55E 10M
Feb 23, 2019 - 05:50 PM EST / 2019.02.23 2250 UTC
Wind: from the SSW (200 degrees) at 25 MPH (22 KT):0
Visibility: greater than 7 mile(s):0
Sky conditions: overcast
Weather: rain
Temperature: 41 F (5 C)
Dew Point: 39 F (4 C)
Relative Humidity: 93%
Pressure (altimeter): 29.77 in. Hg (1008 hPa)
ob: ENTC 232250Z 20022KT 9999 RA FEW008 OVC031 05/04 Q1008 RMK WIND 2600FT 20025KT
cycle: 23

Station Type Date Time Source
ENTC TAF 2019/02/23 18:57 UTC NOAA

TAF ENTC 231700Z 2318/2418 20015KT 9999 -RA SCT015 BKN025
TEMPO 2318/2412 21020G30KT RA BKN012


Example: see airport list